sensor_id;sensor_type;location;lat;lon;timestamp;pressure;altitude;pressure_sealevel;temperature;humidity
31403;BME280;18039;52.188;21.024;2023-04-05T00:01:59;78440.06;;;-141.45;80.78
31403;BME280;18039;52.188;21.024;2023-04-05T00:04:27;78440.06;;;-141.45;80.53
31403;BME280;18039;52.188;21.024;2023-04-05T00:06:56;78450.22;;;-141.45;80.46
31403;BME280;18039;52.188;21.024;2023-04-05T00:09:24;78454.28;;;-141.45;80.81
31403;BME280;18039;52.188;21.024;2023-04-05T00:11:51;78446.16;;;-141.45;81.10
31403;BME280;18039;52.188;21.024;2023-04-05T00:14:19;78450.22;;;-141.45;80.86
31403;BME280;18039;52.188;21.024;2023-04-05T00:16:45;78442.09;;;-141.45;80.59
31403;BME280;18039;52.188;21.024;2023-04-05T00:19:13;78442.09;;;-141.45;80.56
31403;BME280;18039;52.188;21.024;2023-04-05T00:21:40;78429.94;;;-141.45;80.62
31403;BME280;18039;52.188;21.024;2023-04-05T00:24:08;78417.78;;;-141.45;80.34
31403;BME280;18039;52.188;21.024;2023-04-05T00:26:41;78419.78;;;-141.45;79.98
31403;BME280;18039;52.188;21.024;2023-04-05T00:29:10;78417.78;;;-141.45;79.84
31403;BME280;18039;52.188;21.024;2023-04-05T00:31:37;78405.59;;;-141.45;79.59
31403;BME280;18039;52.188;21.024;2023-04-05T00:34:04;78417.78;;;-141.45;79.70
31403;BME280;18039;52.188;21.024;2023-04-05T00:36:35;78421.81;;;-141.45;79.83
31403;BME280;18039;52.188;21.024;2023-04-05T00:39:02;78413.72;;;-141.45;79.87
31403;BME280;18039;52.188;21.024;2023-04-05T00:41:29;78405.59;;;-141.45;79.85
31403;BME280;18039;52.188;21.024;2023-04-05T00:43:56;78409.66;;;-141.45;79.82
31403;BME280;18039;52.188;21.024;2023-04-05T00:46:25;78409.66;;;-141.45;79.95
31403;BME280;18039;52.188;21.024;2023-04-05T00:48:53;78417.78;;;-141.45;79.84
31403;BME280;18039;52.188;21.024;2023-04-05T00:51:20;78409.66;;;-141.45;79.87
31403;BME280;18039;52.188;21.024;2023-04-05T00:53:48;78413.72;;;-141.45;79.73
31403;BME280;18039;52.188;21.024;2023-04-05T00:56:19;78409.66;;;-141.45;80.11
31403;BME280;18039;52.188;21.024;2023-04-05T00:58:47;78413.72;;;-141.45;80.23
31403;BME280;18039;52.188;21.024;2023-04-05T01:01:19;78407.63;;;-141.45;80.35
31403;BME280;18039;52.188;21.024;2023-04-05T01:03:51;78409.66;;;-141.45;80.08
31403;BME280;18039;52.188;21.024;2023-04-05T01:06:31;78413.72;;;-141.45;80.31
31403;BME280;18039;52.188;21.024;2023-04-05T01:09:23;78399.50;;;-141.45;80.76
31403;BME280;18039;52.188;21.024;2023-04-05T01:11:57;78397.50;;;-141.45;80.78
31403;BME280;18039;52.188;21.024;2023-04-05T01:14:27;78405.59;;;-141.45;80.61
31403;BME280;18039;52.188;21.024;2023-04-05T01:16:53;78411.69;;;-141.45;80.78
31403;BME280;18039;52.188;21.024;2023-04-05T01:19:28;78405.59;;;-141.45;81.00
31403;BME280;18039;52.188;21.024;2023-04-05T01:22:22;78413.72;;;-141.45;81.27
31403;BME280;18039;52.188;21.024;2023-04-05T01:30:34;78421.81;;;-141.45;83.04
31403;BME280;18039;52.188;21.024;2023-04-05T01:38:10;78409.66;;;-141.45;84.18
31403;BME280;18039;52.188;21.024;2023-04-05T01:40:40;78409.66;;;-141.45;84.40
31403;BME280;18039;52.188;21.024;2023-04-05T01:43:12;78413.72;;;-141.45;84.64
31403;BME280;18039;52.188;21.024;2023-04-05T01:45:40;78421.81;;;-141.45;84.38
31403;BME280;18039;52.188;21.024;2023-04-05T01:48:09;78427.91;;;-141.45;84.79
31403;BME280;18039;52.188;21.024;2023-04-05T01:50:37;78429.94;;;-141.45;84.80
31403;BME280;18039;52.188;21.024;2023-04-05T01:53:06;78429.94;;;-141.45;85.14
31403;BME280;18039;52.188;21.024;2023-04-05T01:55:34;78442.09;;;-141.45;85.17
31403;BME280;18039;52.188;21.024;2023-04-05T01:58:01;78442.09;;;-141.45;85.07
31403;BME280;18039;52.188;21.024;2023-04-05T02:00:29;78450.22;;;-141.45;84.84
31403;BME280;18039;52.188;21.024;2023-04-05T02:02:56;78450.22;;;-141.45;85.12
31403;BME280;18039;52.188;21.024;2023-04-05T02:05:24;78462.38;;;-141.45;85.17
31403;BME280;18039;52.188;21.024;2023-04-05T02:07:51;78454.28;;;-141.45;85.71
31403;BME280;18039;52.188;21.024;2023-04-05T02:10:21;78462.38;;;-141.45;85.77
31403;BME280;18039;52.188;21.024;2023-04-05T02:12:48;78462.38;;;-141.45;86.18
31403;BME280;18039;52.188;21.024;2023-04-05T02:15:15;78462.38;;;-141.45;86.36
31403;BME280;18039;52.188;21.024;2023-04-05T02:17:42;78470.50;;;-141.45;85.93
31403;BME280;18039;52.188;21.024;2023-04-05T02:20:13;78474.56;;;-141.45;86.04
31403;BME280;18039;52.188;21.024;2023-04-05T02:22:41;78482.66;;;-141.45;86.34
31403;BME280;18039;52.188;21.024;2023-04-05T02:25:11;78478.63;;;-141.45;86.44
31403;BME280;18039;52.188;21.024;2023-04-05T02:27:39;78482.66;;;-141.45;86.25
31403;BME280;18039;52.188;21.024;2023-04-05T02:30:07;78484.69;;;-141.45;86.33
31403;BME280;18039;52.188;21.024;2023-04-05T02:32:34;78490.78;;;-141.45;86.25
31403;BME280;18039;52.188;21.024;2023-04-05T02:35:02;78492.81;;;-141.45;86.44
31403;BME280;18039;52.188;21.024;2023-04-05T02:37:29;78490.78;;;-141.45;86.66
31403;BME280;18039;52.188;21.024;2023-04-05T02:39:57;78498.91;;;-141.45;86.71
31403;BME280;18039;52.188;21.024;2023-04-05T02:42:24;78498.91;;;-141.45;87.06
31403;BME280;18039;52.188;21.024;2023-04-05T02:44:52;78502.94;;;-141.45;86.76
31403;BME280;18039;52.188;21.024;2023-04-05T02:47:20;78507.00;;;-141.45;86.91
31403;BME280;18039;52.188;21.024;2023-04-05T02:49:53;78502.94;;;-141.45;86.99
31403;BME280;18039;52.188;21.024;2023-04-05T02:52:22;78511.06;;;-141.45;87.40
31403;BME280;18039;52.188;21.024;2023-04-05T02:54:50;78515.13;;;-141.45;87.52
31403;BME280;18039;52.188;21.024;2023-04-05T02:57:23;78521.22;;;-141.45;87.30
31403;BME280;18039;52.188;21.024;2023-04-05T02:59:57;78525.25;;;-141.45;87.65
31403;BME280;18039;52.188;21.024;2023-04-05T03:02:26;78523.25;;;-141.45;87.96
31403;BME280;18039;52.188;21.024;2023-04-05T03:04:54;78523.25;;;-141.45;88.01
31403;BME280;18039;52.188;21.024;2023-04-05T03:07:21;78523.25;;;-141.45;87.92
31403;BME280;18039;52.188;21.024;2023-04-05T03:09:52;78535.41;;;-141.45;88.55
31403;BME280;18039;52.188;21.024;2023-04-05T03:12:20;78523.25;;;-141.45;88.40
31403;BME280;18039;52.188;21.024;2023-04-05T03:14:48;78531.34;;;-141.45;88.40
31403;BME280;18039;52.188;21.024;2023-04-05T03:17:19;78527.28;;;-141.45;88.59
31403;BME280;18039;52.188;21.024;2023-04-05T03:19:56;78533.38;;;-141.45;88.93
31403;BME280;18039;52.188;21.024;2023-04-05T03:22:25;78541.50;;;-141.45;88.58
31403;BME280;18039;52.188;21.024;2023-04-05T03:24:54;78535.41;;;-141.45;89.05
31403;BME280;18039;52.188;21.024;2023-04-05T03:27:24;78531.34;;;-141.45;88.92
31403;BME280;18039;52.188;21.024;2023-04-05T03:29:59;78547.56;;;-141.45;89.45
31403;BME280;18039;52.188;21.024;2023-04-05T03:32:26;78527.28;;;-141.45;89.41
31403;BME280;18039;52.188;21.024;2023-04-05T03:35:01;78517.16;;;-141.45;89.51
31403;BME280;18039;52.188;21.024;2023-04-05T03:37:28;78507.00;;;-141.45;89.79
31403;BME280;18039;52.188;21.024;2023-04-05T03:40:01;78500.94;;;-141.45;89.92
31403;BME280;18039;52.188;21.024;2023-04-05T03:42:31;78490.78;;;-141.45;89.50
31403;BME280;18039;52.188;21.024;2023-04-05T03:44:58;78490.78;;;-141.45;89.33
31403;BME280;18039;52.188;21.024;2023-04-05T03:47:25;78478.63;;;-141.45;89.76
31403;BME280;18039;52.188;21.024;2023-04-05T03:49:54;78472.53;;;-141.45;90.02
31403;BME280;18039;52.188;21.024;2023-04-05T03:52:21;78462.38;;;-141.45;89.62
31403;BME280;18039;52.188;21.024;2023-04-05T03:54:48;78462.38;;;-141.45;89.74
31403;BME280;18039;52.188;21.024;2023-04-05T03:57:19;78460.38;;;-141.45;89.71
31403;BME280;18039;52.188;21.024;2023-04-05T03:59:48;78454.28;;;-141.45;89.58
31403;BME280;18039;52.188;21.024;2023-04-05T04:02:16;78446.16;;;-141.45;89.54
31403;BME280;18039;52.188;21.024;2023-04-05T04:04:44;78438.06;;;-141.45;89.43
31403;BME280;18039;52.188;21.024;2023-04-05T04:07:13;78442.09;;;-141.45;89.27
31403;BME280;18039;52.188;21.024;2023-04-05T04:09:40;78434.00;;;-141.45;89.30
31403;BME280;18039;52.188;21.024;2023-04-05T04:12:09;78425.88;;;-141.45;89.59
31403;BME280;18039;52.188;21.024;2023-04-05T04:14:45;78434.00;;;-141.45;89.12
31403;BME280;18039;52.188;21.024;2023-04-05T04:17:37;78421.81;;;-141.45;89.19
31403;BME280;18039;52.188;21.024;2023-04-05T04:20:28;78413.72;;;-141.45;89.19
31403;BME280;18039;52.188;21.024;2023-04-05T04:23:05;78403.56;;;-141.45;88.94
31403;BME280;18039;52.188;21.024;2023-04-05T04:25:59;78401.53;;;-141.45;89.11
31403;BME280;18039;52.188;21.024;2023-04-05T04:28:50;78405.59;;;-141.45;88.82
31403;BME280;18039;52.188;21.024;2023-04-05T04:31:32;78405.59;;;-141.45;88.44
31403;BME280;18039;52.188;21.024;2023-04-05T04:34:05;78393.44;;;-141.45;88.66
31403;BME280;18039;52.188;21.024;2023-04-05T04:36:42;78393.44;;;-141.45;88.34
31403;BME280;18039;52.188;21.024;2023-04-05T04:39:38;78385.31;;;-141.45;88.33
31403;BME280;18039;52.188;21.024;2023-04-05T04:42:37;78373.16;;;-141.45;88.11
31403;BME280;18039;52.188;21.024;2023-04-05T04:45:17;78365.03;;;-141.45;87.26
31403;BME280;18039;52.188;21.024;2023-04-05T04:48:00;78348.81;;;-141.45;87.44
31403;BME280;18039;52.188;21.024;2023-04-05T04:50:38;78352.88;;;-141.45;86.50
31403;BME280;18039;52.188;21.024;2023-04-05T04:53:05;78354.91;;;-141.45;85.59
31403;BME280;18039;52.188;21.024;2023-04-05T04:55:33;78369.09;;;-141.45;84.92
31403;BME280;18039;52.188;21.024;2023-04-05T04:58:02;78363.00;;;-141.45;85.52
31403;BME280;18039;52.188;21.024;2023-04-05T05:00:42;78356.94;;;-141.45;85.81
31403;BME280;18039;52.188;21.024;2023-04-05T05:03:11;78360.97;;;-141.45;84.61
31403;BME280;18039;52.188;21.024;2023-04-05T05:05:42;78365.03;;;-141.45;85.00
31403;BME280;18039;52.188;21.024;2023-04-05T05:08:10;78352.88;;;-141.45;84.10
31403;BME280;18039;52.188;21.024;2023-04-05T05:10:39;78348.81;;;-141.45;84.64
31403;BME280;18039;52.188;21.024;2023-04-05T05:13:06;78344.75;;;-141.45;84.15
31403;BME280;18039;52.188;21.024;2023-04-05T05:15:33;78344.75;;;-141.45;83.42
31403;BME280;18039;52.188;21.024;2023-04-05T05:18:01;78360.97;;;-141.45;83.39
31403;BME280;18039;52.188;21.024;2023-04-05T05:20:30;78360.97;;;-141.45;83.63
31403;BME280;18039;52.188;21.024;2023-04-05T05:22:58;78356.94;;;-141.45;83.72
31403;BME280;18039;52.188;21.024;2023-04-05T05:25:27;78354.91;;;-141.45;84.04
31403;BME280;18039;52.188;21.024;2023-04-05T05:27:56;78344.75;;;-141.45;83.72
31403;BME280;18039;52.188;21.024;2023-04-05T05:30:25;78328.53;;;-141.45;83.88
31403;BME280;18039;52.188;21.024;2023-04-05T05:32:53;78312.31;;;-141.45;83.99
31403;BME280;18039;52.188;21.024;2023-04-05T05:35:20;78316.34;;;-141.45;82.45
31403;BME280;18039;52.188;21.024;2023-04-05T05:37:48;78304.19;;;-141.45;82.86
31403;BME280;18039;52.188;21.024;2023-04-05T05:40:15;78308.25;;;-141.45;82.56
31403;BME280;18039;52.188;21.024;2023-04-05T05:42:43;78287.97;;;-141.45;82.96
31403;BME280;18039;52.188;21.024;2023-04-05T05:45:10;78275.81;;;-141.45;82.79
31403;BME280;18039;52.188;21.024;2023-04-05T05:47:37;78279.84;;;-141.45;81.50
31403;BME280;18039;52.188;21.024;2023-04-05T05:50:05;78271.75;;;-141.45;81.52
31403;BME280;18039;52.188;21.024;2023-04-05T05:52:33;78275.81;;;-141.45;80.57
31403;BME280;18039;52.188;21.024;2023-04-05T05:55:01;78279.84;;;-141.45;81.33
31403;BME280;18039;52.188;21.024;2023-04-05T05:57:29;78259.56;;;-141.45;81.17
31403;BME280;18039;52.188;21.024;2023-04-05T05:59:56;78267.69;;;-141.45;80.51
31403;BME280;18039;52.188;21.024;2023-04-05T06:02:23;78263.63;;;-141.45;80.97
31403;BME280;18039;52.188;21.024;2023-04-05T06:04:52;78251.47;;;-141.45;80.87
31403;BME280;18039;52.188;21.024;2023-04-05T06:07:21;78247.41;;;-141.45;80.64
31403;BME280;18039;52.188;21.024;2023-04-05T06:09:48;78235.25;;;-141.45;80.42
31403;BME280;18039;52.188;21.024;2023-04-05T06:12:15;78231.19;;;-141.45;79.78
31403;BME280;18039;52.188;21.024;2023-04-05T06:14:42;78223.06;;;-141.45;79.80
31403;BME280;18039;52.188;21.024;2023-04-05T06:17:09;78210.91;;;-141.45;79.39
31403;BME280;18039;52.188;21.024;2023-04-05T06:19:36;78202.78;;;-141.45;78.84
31403;BME280;18039;52.188;21.024;2023-04-05T06:22:04;78223.06;;;-141.45;77.43
31403;BME280;18039;52.188;21.024;2023-04-05T06:24:31;78227.13;;;-141.45;78.57
31403;BME280;18039;52.188;21.024;2023-04-05T06:26:58;78214.97;;;-141.45;78.51
31403;BME280;18039;52.188;21.024;2023-04-05T06:29:35;78210.91;;;-141.45;78.04
31403;BME280;18039;52.188;21.024;2023-04-05T06:32:03;78214.97;;;-141.45;78.07
31403;BME280;18039;52.188;21.024;2023-04-05T06:34:33;78206.84;;;-141.45;77.81
31403;BME280;18039;52.188;21.024;2023-04-05T06:37:05;78198.72;;;-141.45;77.74
31403;BME280;18039;52.188;21.024;2023-04-05T06:39:36;78186.56;;;-141.45;77.66
31403;BME280;18039;52.188;21.024;2023-04-05T06:42:05;78182.50;;;-141.45;76.05
31403;BME280;18039;52.188;21.024;2023-04-05T06:44:41;78194.69;;;-141.45;76.06
31403;BME280;18039;52.188;21.024;2023-04-05T06:47:12;78202.78;;;-141.45;76.13
31403;BME280;18039;52.188;21.024;2023-04-05T06:49:39;78219.00;;;-141.45;76.67
31403;BME280;18039;52.188;21.024;2023-04-05T06:52:07;78223.06;;;-141.45;77.14
31403;BME280;18039;52.188;21.024;2023-04-05T06:54:38;78212.94;;;-141.45;77.63
31403;BME280;18039;52.188;21.024;2023-04-05T06:57:05;78198.72;;;-141.45;78.09
31403;BME280;18039;52.188;21.024;2023-04-05T06:59:33;78198.72;;;-141.45;76.79
31403;BME280;18039;52.188;21.024;2023-04-05T07:02:00;78204.81;;;-141.45;76.41
31403;BME280;18039;52.188;21.024;2023-04-05T07:04:27;78219.00;;;-141.45;76.37
31403;BME280;18039;52.188;21.024;2023-04-05T07:07:00;78214.97;;;-141.45;76.38
31403;BME280;18039;52.188;21.024;2023-04-05T07:09:31;78227.13;;;-141.45;76.85
31403;BME280;18039;52.188;21.024;2023-04-05T07:12:01;78210.91;;;-141.45;76.70
31403;BME280;18039;52.188;21.024;2023-04-05T07:14:30;78210.91;;;-141.45;75.92
31403;BME280;18039;52.188;21.024;2023-04-05T07:16:58;78210.91;;;-141.45;77.03
31403;BME280;18039;52.188;21.024;2023-04-05T07:19:25;78223.06;;;-141.45;76.61
31403;BME280;18039;52.188;21.024;2023-04-05T07:21:54;78231.19;;;-141.45;76.04
31403;BME280;18039;52.188;21.024;2023-04-05T07:24:21;78239.28;;;-141.45;77.10
31403;BME280;18039;52.188;21.024;2023-04-05T07:26:48;78235.25;;;-141.45;77.57
31403;BME280;18039;52.188;21.024;2023-04-05T07:29:16;78225.09;;;-141.45;77.45
31403;BME280;18039;52.188;21.024;2023-04-05T07:31:43;78223.06;;;-141.45;77.73
31403;BME280;18039;52.188;21.024;2023-04-05T07:34:11;78225.09;;;-141.45;77.65
31403;BME280;18039;52.188;21.024;2023-04-05T07:36:40;78214.97;;;-141.45;77.56
31403;BME280;18039;52.188;21.024;2023-04-05T07:39:07;78231.19;;;-141.45;77.24
31403;BME280;18039;52.188;21.024;2023-04-05T07:41:35;78223.06;;;-141.45;77.19
31403;BME280;18039;52.188;21.024;2023-04-05T07:44:04;78210.91;;;-141.45;77.06
31403;BME280;18039;52.188;21.024;2023-04-05T07:46:31;78210.91;;;-141.45;76.67
31403;BME280;18039;52.188;21.024;2023-04-05T07:48:58;78202.78;;;-141.45;76.42
31403;BME280;18039;52.188;21.024;2023-04-05T07:51:26;78186.56;;;-141.45;74.69
31403;BME280;18039;52.188;21.024;2023-04-05T07:53:53;78206.84;;;-141.45;75.60
31403;BME280;18039;52.188;21.024;2023-04-05T07:56:21;78210.91;;;-141.45;75.55
31403;BME280;18039;52.188;21.024;2023-04-05T07:58:49;78206.84;;;-141.45;75.28
31403;BME280;18039;52.188;21.024;2023-04-05T08:01:21;78208.88;;;-141.45;75.28
31403;BME280;18039;52.188;21.024;2023-04-05T08:03:54;78214.97;;;-141.45;76.84
31403;BME280;18039;52.188;21.024;2023-04-05T08:06:25;78198.72;;;-141.45;76.82
31403;BME280;18039;52.188;21.024;2023-04-05T08:08:53;78182.50;;;-141.45;77.02
31403;BME280;18039;52.188;21.024;2023-04-05T08:11:21;78172.38;;;-141.45;75.72
31403;BME280;18039;52.188;21.024;2023-04-05T08:13:49;78154.13;;;-141.45;76.26
31403;BME280;18039;52.188;21.024;2023-04-05T08:16:17;78133.84;;;-141.45;75.89
31403;BME280;18039;52.188;21.024;2023-04-05T08:18:44;78129.78;;;-141.45;75.14
31403;BME280;18039;52.188;21.024;2023-04-05T08:21:12;78123.69;;;-141.45;73.36
31403;BME280;18039;52.188;21.024;2023-04-05T08:23:41;78111.53;;;-141.45;74.09
31403;BME280;18039;52.188;21.024;2023-04-05T08:26:10;78103.41;;;-141.45;73.66
31403;BME280;18039;52.188;21.024;2023-04-05T08:28:37;78097.34;;;-141.45;71.23
31403;BME280;18039;52.188;21.024;2023-04-05T08:31:04;78121.66;;;-141.45;71.54
31403;BME280;18039;52.188;21.024;2023-04-05T08:33:31;78121.66;;;-141.45;72.04
31403;BME280;18039;52.188;21.024;2023-04-05T08:36:06;78109.50;;;-141.45;72.29
31403;BME280;18039;52.188;21.024;2023-04-05T08:38:35;78103.41;;;-141.45;73.19
31403;BME280;18039;52.188;21.024;2023-04-05T08:41:23;78085.16;;;-141.45;72.77
31403;BME280;18039;52.188;21.024;2023-04-05T08:43:58;78056.78;;;-141.45;73.00
31403;BME280;18039;52.188;21.024;2023-04-05T08:46:33;78032.44;;;-141.45;72.16
31403;BME280;18039;52.188;21.024;2023-04-05T08:49:05;78016.22;;;-141.45;69.74
31403;BME280;18039;52.188;21.024;2023-04-05T08:51:37;78040.56;;;-141.45;67.45
31403;BME280;18039;52.188;21.024;2023-04-05T08:54:06;78044.59;;;-141.45;66.24
31403;BME280;18039;52.188;21.024;2023-04-05T08:56:36;78056.78;;;-141.45;67.56
31403;BME280;18039;52.188;21.024;2023-04-05T08:59:11;78038.53;;;-141.45;67.35
31403;BME280;18039;52.188;21.024;2023-04-05T09:01:43;78022.28;;;-141.45;66.10
31403;BME280;18039;52.188;21.024;2023-04-05T09:04:15;77983.75;;;-141.45;66.90
31403;BME280;18039;52.188;21.024;2023-04-05T09:06:44;77959.44;;;-141.45;66.01
31403;BME280;18039;52.188;21.024;2023-04-05T09:09:13;77951.31;;;-141.45;61.57
31403;BME280;18039;52.188;21.024;2023-04-05T09:11:42;78000.00;;;-141.45;63.23
31403;BME280;18039;52.188;21.024;2023-04-05T09:14:09;78030.41;;;-141.45;63.27
31403;BME280;18039;52.188;21.024;2023-04-05T09:16:39;78052.72;;;-141.45;64.38
31403;BME280;18039;52.188;21.024;2023-04-05T09:19:09;78052.72;;;-141.45;64.88
31403;BME280;18039;52.188;21.024;2023-04-05T09:22:02;78028.38;;;-141.45;64.59
31403;BME280;18039;52.188;21.024;2023-04-05T09:24:39;78028.38;;;-141.45;64.61
31403;BME280;18039;52.188;21.024;2023-04-05T09:27:10;78016.22;;;-141.45;64.19
31403;BME280;18039;52.188;21.024;2023-04-05T09:29:42;78004.03;;;-141.45;63.56
31403;BME280;18039;52.188;21.024;2023-04-05T09:32:11;78006.06;;;-141.45;63.88
31403;BME280;18039;52.188;21.024;2023-04-05T09:34:40;77995.94;;;-141.45;63.39
31403;BME280;18039;52.188;21.024;2023-04-05T09:37:18;78004.03;;;-141.45;61.63
31403;BME280;18039;52.188;21.024;2023-04-05T09:39:48;78028.38;;;-141.45;62.96
31403;BME280;18039;52.188;21.024;2023-04-05T09:42:18;78040.56;;;-141.45;60.62
31403;BME280;18039;52.188;21.024;2023-04-05T09:44:47;78040.56;;;-141.45;61.83
31403;BME280;18039;52.188;21.024;2023-04-05T09:47:19;78012.16;;;-141.45;60.70
31403;BME280;18039;52.188;21.024;2023-04-05T09:49:52;78048.66;;;-141.45;61.11
31403;BME280;18039;52.188;21.024;2023-04-05T09:52:24;78052.72;;;-141.45;62.45
31403;BME280;18039;52.188;21.024;2023-04-05T09:54:56;78016.22;;;-141.45;61.98
31403;BME280;18039;52.188;21.024;2023-04-05T09:57:27;78006.06;;;-141.45;60.59
31403;BME280;18039;52.188;21.024;2023-04-05T09:59:56;77995.94;;;-141.45;60.05
31403;BME280;18039;52.188;21.024;2023-04-05T10:02:24;78006.06;;;-141.45;61.21
31403;BME280;18039;52.188;21.024;2023-04-05T10:04:51;77983.75;;;-141.45;61.39
31403;BME280;18039;52.188;21.024;2023-04-05T10:07:20;77947.25;;;-141.45;59.77
31403;BME280;18039;52.188;21.024;2023-04-05T10:09:47;77971.59;;;-141.45;58.70
31403;BME280;18039;52.188;21.024;2023-04-05T10:12:26;77983.75;;;-141.45;58.11
31403;BME280;18039;52.188;21.024;2023-04-05T10:14:54;77987.81;;;-141.45;58.69
31403;BME280;18039;52.188;21.024;2023-04-05T10:17:51;77987.81;;;-141.45;58.84
31403;BME280;18039;52.188;21.024;2023-04-05T10:20:21;77995.94;;;-141.45;58.96
31403;BME280;18039;52.188;21.024;2023-04-05T10:23:08;77987.81;;;-141.45;58.85
31403;BME280;18039;52.188;21.024;2023-04-05T10:28:29;77987.81;;;-141.45;59.18
31403;BME280;18039;52.188;21.024;2023-04-05T10:34:06;77955.38;;;-141.45;59.53
31403;BME280;18039;52.188;21.024;2023-04-05T10:36:58;77959.44;;;-141.45;58.92
31403;BME280;18039;52.188;21.024;2023-04-05T10:39:39;77951.31;;;-141.45;58.94
31403;BME280;18039;52.188;21.024;2023-04-05T10:42:20;77939.16;;;-141.45;59.12
31403;BME280;18039;52.188;21.024;2023-04-05T10:44:52;77918.88;;;-141.45;57.91
31403;BME280;18039;52.188;21.024;2023-04-05T10:47:27;77900.63;;;-141.45;57.59
31403;BME280;18039;52.188;21.024;2023-04-05T10:49:56;77900.63;;;-141.45;57.55
31403;BME280;18039;52.188;21.024;2023-04-05T10:52:26;77894.53;;;-141.45;58.01
31403;BME280;18039;52.188;21.024;2023-04-05T10:54:56;77914.81;;;-141.45;57.20
31403;BME280;18039;52.188;21.024;2023-04-05T10:57:26;77902.66;;;-141.45;57.29
31403;BME280;18039;52.188;21.024;2023-04-05T10:59:54;77882.38;;;-141.45;57.72
31403;BME280;18039;52.188;21.024;2023-04-05T11:02:22;77862.09;;;-141.45;55.42
31403;BME280;18039;52.188;21.024;2023-04-05T11:04:53;77874.25;;;-141.45;55.37
31403;BME280;18039;52.188;21.024;2023-04-05T11:07:23;77890.47;;;-141.45;56.16
31403;BME280;18039;52.188;21.024;2023-04-05T11:09:59;77870.22;;;-141.45;56.84
31403;BME280;18039;52.188;21.024;2023-04-05T11:15:28;77793.16;;;-141.45;54.76
31403;BME280;18039;52.188;21.024;2023-04-05T11:23:21;77716.09;;;-141.45;53.19
31403;BME280;18039;52.188;21.024;2023-04-05T11:25:56;77724.19;;;-141.45;51.82
31403;BME280;18039;52.188;21.024;2023-04-05T11:31:23;77724.19;;;-141.45;53.10
31403;BME280;18039;52.188;21.024;2023-04-05T11:33:57;77736.38;;;-141.45;52.10
31403;BME280;18039;52.188;21.024;2023-04-05T11:36:35;77780.97;;;-141.45;50.89
31403;BME280;18039;52.188;21.024;2023-04-05T11:39:22;77789.09;;;-141.45;52.88
31403;BME280;18039;52.188;21.024;2023-04-05T11:42:01;77748.53;;;-141.45;53.04
31403;BME280;18039;52.188;21.024;2023-04-05T11:44:39;77695.81;;;-141.45;53.31
31403;BME280;18039;52.188;21.024;2023-04-05T11:47:06;77657.28;;;-141.45;52.28
31403;BME280;18039;52.188;21.024;2023-04-05T11:49:34;77643.09;;;-141.45;50.44
31403;BME280;18039;52.188;21.024;2023-04-05T11:52:19;77616.72;;;-141.45;49.53
31403;BME280;18039;52.188;21.024;2023-04-05T11:54:52;77634.97;;;-141.45;49.12
31403;BME280;18039;52.188;21.024;2023-04-05T11:57:21;77667.44;;;-141.45;49.26
31403;BME280;18039;52.188;21.024;2023-04-05T11:59:50;77691.75;;;-141.45;49.87
31403;BME280;18039;52.188;21.024;2023-04-05T12:02:19;77705.94;;;-141.45;50.08
31403;BME280;18039;52.188;21.024;2023-04-05T12:04:56;77716.09;;;-141.45;50.44
31403;BME280;18039;52.188;21.024;2023-04-05T12:07:26;77699.88;;;-141.45;51.05
31403;BME280;18039;52.188;21.024;2023-04-05T12:10:08;77703.94;;;-141.45;50.73
31403;BME280;18039;52.188;21.024;2023-04-05T12:12:42;77687.69;;;-141.45;49.99
31403;BME280;18039;52.188;21.024;2023-04-05T12:15:11;77705.94;;;-141.45;50.99
31403;BME280;18039;52.188;21.024;2023-04-05T12:17:49;77691.75;;;-141.45;49.70
31403;BME280;18039;52.188;21.024;2023-04-05T12:20:24;77707.97;;;-141.45;50.33
31403;BME280;18039;52.188;21.024;2023-04-05T12:22:54;77724.19;;;-141.45;49.76
31403;BME280;18039;52.188;21.024;2023-04-05T12:25:22;77746.50;;;-141.45;50.94
31403;BME280;18039;52.188;21.024;2023-04-05T12:27:50;77756.66;;;-141.45;50.93
31403;BME280;18039;52.188;21.024;2023-04-05T12:30:19;77752.59;;;-141.45;51.13
31403;BME280;18039;52.188;21.024;2023-04-05T12:32:52;77789.09;;;-141.45;50.93
31403;BME280;18039;52.188;21.024;2023-04-05T12:35:31;77785.03;;;-141.45;51.42
31403;BME280;18039;52.188;21.024;2023-04-05T12:38:05;77783.00;;;-141.45;51.50
31403;BME280;18039;52.188;21.024;2023-04-05T12:40:34;77823.56;;;-141.45;52.44
31403;BME280;18039;52.188;21.024;2023-04-05T12:43:07;77853.97;;;-141.45;52.25
31403;BME280;18039;52.188;21.024;2023-04-05T12:45:35;77856.00;;;-141.45;52.29
31403;BME280;18039;52.188;21.024;2023-04-05T12:48:12;77862.09;;;-141.45;52.50
31403;BME280;18039;52.188;21.024;2023-04-05T12:50:45;77851.97;;;-141.45;52.64
31403;BME280;18039;52.188;21.024;2023-04-05T12:53:21;77845.88;;;-141.45;52.50
31403;BME280;18039;52.188;21.024;2023-04-05T12:57:17;77841.81;;;-141.45;51.97
31403;BME280;18039;52.188;21.024;2023-04-05T13:01:12;77821.53;;;-141.45;51.89
31403;BME280;18039;52.188;21.024;2023-04-05T13:05:07;77793.16;;;-141.45;52.72
31403;BME280;18039;52.188;21.024;2023-04-05T13:09:03;77744.47;;;-141.45;52.06
31403;BME280;18039;52.188;21.024;2023-04-05T13:11:33;77720.16;;;-141.45;50.58
31403;BME280;18039;52.188;21.024;2023-04-05T13:14:00;77716.09;;;-141.45;50.50
31403;BME280;18039;52.188;21.024;2023-04-05T13:16:28;77728.25;;;-141.45;50.97
31403;BME280;18039;52.188;21.024;2023-04-05T13:18:55;77728.25;;;-141.45;51.05
31403;BME280;18039;52.188;21.024;2023-04-05T13:21:23;77728.25;;;-141.45;51.36
31403;BME280;18039;52.188;21.024;2023-04-05T13:23:50;77712.03;;;-141.45;50.19